sensor_id;sensor_type;location;lat;lon;timestamp;temperature;humidity
7240;DHT22;3661;53.288;10.458;2023-04-01T00:02:01;10.20;99.90
7240;DHT22;3661;53.288;10.458;2023-04-01T00:04:37;10.20;99.90
7240;DHT22;3661;53.288;10.458;2023-04-01T00:07:09;10.20;99.90
7240;DHT22;3661;53.288;10.458;2023-04-01T00:09:41;10.20;99.90
7240;DHT22;3661;53.288;10.458;2023-04-01T00:12:13;10.10;99.90
7240;DHT22;3661;53.288;10.458;2023-04-01T00:14:45;10.10;99.90
7240;DHT22;3661;53.288;10.458;2023-04-01T00:17:17;10.20;99.90
7240;DHT22;3661;53.288;10.458;2023-04-01T00:19:56;10.10;99.90
7240;DHT22;3661;53.288;10.458;2023-04-01T00:22:28;10.10;99.90
7240;DHT22;3661;53.288;10.458;2023-04-01T00:25:01;10.10;99.90
7240;DHT22;3661;53.288;10.458;2023-04-01T00:27:33;10.10;99.90
7240;DHT22;3661;53.288;10.458;2023-04-01T00:30:08;10.10;99.90
7240;DHT22;3661;53.288;10.458;2023-04-01T00:32:41;10.10;99.90
7240;DHT22;3661;53.288;10.458;2023-04-01T00:35:14;10.10;99.90
7240;DHT22;3661;53.288;10.458;2023-04-01T00:37:47;10.10;99.90
7240;DHT22;3661;53.288;10.458;2023-04-01T00:40:26;10.10;99.90
7240;DHT22;3661;53.288;10.458;2023-04-01T00:42:59;10.10;99.90
7240;DHT22;3661;53.288;10.458;2023-04-01T00:45:34;10.00;99.90
7240;DHT22;3661;53.288;10.458;2023-04-01T00:48:12;10.00;99.90
7240;DHT22;3661;53.288;10.458;2023-04-01T00:50:50;10.00;99.90
7240;DHT22;3661;53.288;10.458;2023-04-01T00:53:23;10.00;99.90
7240;DHT22;3661;53.288;10.458;2023-04-01T00:55:59;10.00;99.90
7240;DHT22;3661;53.288;10.458;2023-04-01T00:58:34;10.00;99.90
7240;DHT22;3661;53.288;10.458;2023-04-01T01:01:09;10.00;99.90
7240;DHT22;3661;53.288;10.458;2023-04-01T01:03:42;10.00;99.90
7240;DHT22;3661;53.288;10.458;2023-04-01T01:06:25;10.00;99.90
7240;DHT22;3661;53.288;10.458;2023-04-01T01:09:11;10.00;99.90
7240;DHT22;3661;53.288;10.458;2023-04-01T01:11:57;10.00;99.90
7240;DHT22;3661;53.288;10.458;2023-04-01T01:14:41;10.00;99.90
7240;DHT22;3661;53.288;10.458;2023-04-01T01:17:24;10.00;99.90
7240;DHT22;3661;53.288;10.458;2023-04-01T01:20:16;9.90;99.90
7240;DHT22;3661;53.288;10.458;2023-04-01T01:23:23;9.90;99.90
7240;DHT22;3661;53.288;10.458;2023-04-01T01:26:17;9.90;99.90
7240;DHT22;3661;53.288;10.458;2023-04-01T01:29:04;9.90;99.90
7240;DHT22;3661;53.288;10.458;2023-04-01T01:31:44;9.90;99.90
7240;DHT22;3661;53.288;10.458;2023-04-01T01:34:23;9.90;99.90
7240;DHT22;3661;53.288;10.458;2023-04-01T01:37:00;9.90;99.90
7240;DHT22;3661;53.288;10.458;2023-04-01T01:39:34;9.80;99.90
7240;DHT22;3661;53.288;10.458;2023-04-01T01:42:12;9.90;99.90
7240;DHT22;3661;53.288;10.458;2023-04-01T01:44:47;9.80;99.90
7240;DHT22;3661;53.288;10.458;2023-04-01T01:47:21;9.80;99.90
7240;DHT22;3661;53.288;10.458;2023-04-01T01:49:55;9.80;99.90
7240;DHT22;3661;53.288;10.458;2023-04-01T01:52:29;9.80;99.90
7240;DHT22;3661;53.288;10.458;2023-04-01T01:55:01;9.80;99.90
7240;DHT22;3661;53.288;10.458;2023-04-01T01:57:37;9.80;99.90
7240;DHT22;3661;53.288;10.458;2023-04-01T02:00:12;9.70;99.90
7240;DHT22;3661;53.288;10.458;2023-04-01T02:02:46;9.70;99.90
7240;DHT22;3661;53.288;10.458;2023-04-01T02:05:21;9.70;99.90
7240;DHT22;3661;53.288;10.458;2023-04-01T02:08:01;9.70;99.90
7240;DHT22;3661;53.288;10.458;2023-04-01T02:10:37;9.70;99.90
7240;DHT22;3661;53.288;10.458;2023-04-01T02:13:16;9.70;99.90
7240;DHT22;3661;53.288;10.458;2023-04-01T02:15:56;9.70;99.90
7240;DHT22;3661;53.288;10.458;2023-04-01T02:18:33;9.70;99.90
7240;DHT22;3661;53.288;10.458;2023-04-01T02:21:09;9.70;99.90
7240;DHT22;3661;53.288;10.458;2023-04-01T02:23:44;9.70;99.90
7240;DHT22;3661;53.288;10.458;2023-04-01T02:26:18;9.70;99.90
7240;DHT22;3661;53.288;10.458;2023-04-01T02:28:53;9.70;99.90
7240;DHT22;3661;53.288;10.458;2023-04-01T02:31:26;9.70;99.90
7240;DHT22;3661;53.288;10.458;2023-04-01T02:33:59;9.70;99.90
7240;DHT22;3661;53.288;10.458;2023-04-01T02:36:32;9.70;99.90
7240;DHT22;3661;53.288;10.458;2023-04-01T02:39:05;9.70;99.90
7240;DHT22;3661;53.288;10.458;2023-04-01T02:41:39;9.70;99.90
7240;DHT22;3661;53.288;10.458;2023-04-01T02:44:13;9.70;99.90
7240;DHT22;3661;53.288;10.458;2023-04-01T02:46:46;9.70;99.90
7240;DHT22;3661;53.288;10.458;2023-04-01T02:49:18;9.70;99.90
7240;DHT22;3661;53.288;10.458;2023-04-01T02:51:51;9.70;99.90
7240;DHT22;3661;53.288;10.458;2023-04-01T02:54:27;9.70;99.90
7240;DHT22;3661;53.288;10.458;2023-04-01T02:57:00;9.70;99.90
7240;DHT22;3661;53.288;10.458;2023-04-01T02:59:34;9.70;99.90
7240;DHT22;3661;53.288;10.458;2023-04-01T03:02:06;9.60;99.90
7240;DHT22;3661;53.288;10.458;2023-04-01T03:04:38;9.60;99.90
7240;DHT22;3661;53.288;10.458;2023-04-01T03:07:10;9.60;99.90
7240;DHT22;3661;53.288;10.458;2023-04-01T03:09:44;9.60;99.90
7240;DHT22;3661;53.288;10.458;2023-04-01T03:12:18;9.60;99.90
7240;DHT22;3661;53.288;10.458;2023-04-01T03:14:51;9.60;99.90
7240;DHT22;3661;53.288;10.458;2023-04-01T03:17:23;9.60;99.90
7240;DHT22;3661;53.288;10.458;2023-04-01T03:19:55;9.60;99.90
7240;DHT22;3661;53.288;10.458;2023-04-01T03:22:30;9.60;99.90
7240;DHT22;3661;53.288;10.458;2023-04-01T03:25:06;9.60;99.90
7240;DHT22;3661;53.288;10.458;2023-04-01T03:27:39;9.60;99.90
7240;DHT22;3661;53.288;10.458;2023-04-01T03:30:12;9.60;99.90
7240;DHT22;3661;53.288;10.458;2023-04-01T03:32:44;9.60;99.90
7240;DHT22;3661;53.288;10.458;2023-04-01T03:35:17;9.60;99.90
7240;DHT22;3661;53.288;10.458;2023-04-01T03:37:51;9.60;99.90
7240;DHT22;3661;53.288;10.458;2023-04-01T03:40:24;9.60;99.90
7240;DHT22;3661;53.288;10.458;2023-04-01T03:42:58;9.60;99.90
7240;DHT22;3661;53.288;10.458;2023-04-01T03:45:31;9.60;99.90
7240;DHT22;3661;53.288;10.458;2023-04-01T03:48:03;9.60;99.90
7240;DHT22;3661;53.288;10.458;2023-04-01T03:50:36;9.60;99.90
7240;DHT22;3661;53.288;10.458;2023-04-01T03:53:12;9.60;99.90
7240;DHT22;3661;53.288;10.458;2023-04-01T03:55:46;9.60;99.90
7240;DHT22;3661;53.288;10.458;2023-04-01T03:58:19;9.60;99.90
7240;DHT22;3661;53.288;10.458;2023-04-01T04:00:51;9.60;99.90
7240;DHT22;3661;53.288;10.458;2023-04-01T04:03:25;9.60;99.90
7240;DHT22;3661;53.288;10.458;2023-04-01T04:05:58;9.60;99.90
7240;DHT22;3661;53.288;10.458;2023-04-01T04:08:30;9.60;99.90
7240;DHT22;3661;53.288;10.458;2023-04-01T04:11:07;9.50;99.90
7240;DHT22;3661;53.288;10.458;2023-04-01T04:13:39;9.60;99.90
7240;DHT22;3661;53.288;10.458;2023-04-01T04:16:12;9.50;99.90
7240;DHT22;3661;53.288;10.458;2023-04-01T04:18:44;9.50;99.90
7240;DHT22;3661;53.288;10.458;2023-04-01T04:21:17;9.50;99.90
7240;DHT22;3661;53.288;10.458;2023-04-01T04:23:50;9.50;99.90
7240;DHT22;3661;53.288;10.458;2023-04-01T04:26:26;9.50;99.90
7240;DHT22;3661;53.288;10.458;2023-04-01T04:28:59;9.50;99.90
7240;DHT22;3661;53.288;10.458;2023-04-01T04:31:32;9.50;99.90
7240;DHT22;3661;53.288;10.458;2023-04-01T04:34:12;9.50;99.90
7240;DHT22;3661;53.288;10.458;2023-04-01T04:36:45;9.50;99.90
7240;DHT22;3661;53.288;10.458;2023-04-01T04:39:19;9.50;99.90
7240;DHT22;3661;53.288;10.458;2023-04-01T04:41:52;9.50;99.90
7240;DHT22;3661;53.288;10.458;2023-04-01T04:44:27;9.50;99.90
7240;DHT22;3661;53.288;10.458;2023-04-01T04:47:01;9.50;99.90
7240;DHT22;3661;53.288;10.458;2023-04-01T04:49:33;9.50;99.90
7240;DHT22;3661;53.288;10.458;2023-04-01T04:52:06;9.50;99.90
7240;DHT22;3661;53.288;10.458;2023-04-01T04:54:38;9.50;99.90
7240;DHT22;3661;53.288;10.458;2023-04-01T04:57:11;9.50;99.90
7240;DHT22;3661;53.288;10.458;2023-04-01T04:59:44;9.50;99.90
7240;DHT22;3661;53.288;10.458;2023-04-01T05:02:16;9.50;99.90
7240;DHT22;3661;53.288;10.458;2023-04-01T05:04:49;9.50;99.90
7240;DHT22;3661;53.288;10.458;2023-04-01T05:07:22;9.50;99.90
7240;DHT22;3661;53.288;10.458;2023-04-01T05:09:55;9.50;99.90
7240;DHT22;3661;53.288;10.458;2023-04-01T05:12:30;9.50;99.90
7240;DHT22;3661;53.288;10.458;2023-04-01T05:15:07;9.50;99.90
7240;DHT22;3661;53.288;10.458;2023-04-01T05:17:41;9.50;99.90
7240;DHT22;3661;53.288;10.458;2023-04-01T05:20:14;9.50;99.90
7240;DHT22;3661;53.288;10.458;2023-04-01T05:22:46;9.50;99.90
7240;DHT22;3661;53.288;10.458;2023-04-01T05:25:19;9.50;99.90
7240;DHT22;3661;53.288;10.458;2023-04-01T05:27:52;9.50;99.90
7240;DHT22;3661;53.288;10.458;2023-04-01T05:30:24;9.50;99.90
7240;DHT22;3661;53.288;10.458;2023-04-01T05:32:57;9.50;99.90
7240;DHT22;3661;53.288;10.458;2023-04-01T05:35:31;9.50;99.90
7240;DHT22;3661;53.288;10.458;2023-04-01T05:38:06;9.50;99.90
7240;DHT22;3661;53.288;10.458;2023-04-01T05:40:38;9.50;99.90
7240;DHT22;3661;53.288;10.458;2023-04-01T05:43:12;9.50;99.90
7240;DHT22;3661;53.288;10.458;2023-04-01T05:45:44;9.50;99.90
7240;DHT22;3661;53.288;10.458;2023-04-01T05:48:16;9.50;99.90
7240;DHT22;3661;53.288;10.458;2023-04-01T05:50:49;9.50;99.90
7240;DHT22;3661;53.288;10.458;2023-04-01T05:53:24;9.50;99.90
7240;DHT22;3661;53.288;10.458;2023-04-01T05:56:02;9.60;99.90
7240;DHT22;3661;53.288;10.458;2023-04-01T05:58:36;9.60;99.90
7240;DHT22;3661;53.288;10.458;2023-04-01T06:01:09;9.60;99.90
7240;DHT22;3661;53.288;10.458;2023-04-01T06:03:41;9.60;99.90
7240;DHT22;3661;53.288;10.458;2023-04-01T06:06:15;9.60;99.90
7240;DHT22;3661;53.288;10.458;2023-04-01T06:08:48;9.60;99.90
7240;DHT22;3661;53.288;10.458;2023-04-01T06:11:27;9.60;99.90
7240;DHT22;3661;53.288;10.458;2023-04-01T06:14:21;9.70;99.90
7240;DHT22;3661;53.288;10.458;2023-04-01T06:17:07;9.70;99.90
7240;DHT22;3661;53.288;10.458;2023-04-01T06:19:50;9.70;99.90
7240;DHT22;3661;53.288;10.458;2023-04-01T06:22:42;9.70;99.90
7240;DHT22;3661;53.288;10.458;2023-04-01T06:25:29;9.70;99.90
7240;DHT22;3661;53.288;10.458;2023-04-01T06:28:17;9.70;99.90
7240;DHT22;3661;53.288;10.458;2023-04-01T06:30:58;9.70;99.90
7240;DHT22;3661;53.288;10.458;2023-04-01T06:33:44;9.70;99.90
7240;DHT22;3661;53.288;10.458;2023-04-01T06:36:31;9.60;99.90
7240;DHT22;3661;53.288;10.458;2023-04-01T06:45:20;9.50;99.90
7240;DHT22;3661;53.288;10.458;2023-04-01T06:48:14;9.40;99.90
7240;DHT22;3661;53.288;10.458;2023-04-01T06:50:54;9.40;99.90
7240;DHT22;3661;53.288;10.458;2023-04-01T06:53:31;9.30;99.90
7240;DHT22;3661;53.288;10.458;2023-04-01T06:56:07;9.30;99.90
7240;DHT22;3661;53.288;10.458;2023-04-01T06:58:44;9.20;99.90
7240;DHT22;3661;53.288;10.458;2023-04-01T07:01:21;9.20;99.90
7240;DHT22;3661;53.288;10.458;2023-04-01T07:03:58;9.20;99.90
7240;DHT22;3661;53.288;10.458;2023-04-01T07:06:38;9.10;99.90
7240;DHT22;3661;53.288;10.458;2023-04-01T07:09:14;9.10;99.90
7240;DHT22;3661;53.288;10.458;2023-04-01T07:11:48;9.00;99.90
7240;DHT22;3661;53.288;10.458;2023-04-01T07:14:24;9.00;99.90
7240;DHT22;3661;53.288;10.458;2023-04-01T07:17:00;8.90;99.90
7240;DHT22;3661;53.288;10.458;2023-04-01T07:19:42;8.90;99.90
7240;DHT22;3661;53.288;10.458;2023-04-01T07:22:26;8.90;99.90
7240;DHT22;3661;53.288;10.458;2023-04-01T07:25:03;8.80;99.90
7240;DHT22;3661;53.288;10.458;2023-04-01T07:27:38;8.80;99.90
7240;DHT22;3661;53.288;10.458;2023-04-01T07:30:15;8.80;99.90
7240;DHT22;3661;53.288;10.458;2023-04-01T07:32:51;8.80;99.90
7240;DHT22;3661;53.288;10.458;2023-04-01T07:35:32;8.70;99.90
7240;DHT22;3661;53.288;10.458;2023-04-01T07:38:15;8.70;99.90
7240;DHT22;3661;53.288;10.458;2023-04-01T07:40:58;8.70;99.90
7240;DHT22;3661;53.288;10.458;2023-04-01T07:43:47;8.60;99.90
7240;DHT22;3661;53.288;10.458;2023-04-01T07:46:37;8.60;99.90
7240;DHT22;3661;53.288;10.458;2023-04-01T07:49:15;8.60;99.90
7240;DHT22;3661;53.288;10.458;2023-04-01T07:51:56;8.60;99.90
7240;DHT22;3661;53.288;10.458;2023-04-01T07:54:37;8.50;99.90
7240;DHT22;3661;53.288;10.458;2023-04-01T07:57:16;8.50;99.90
7240;DHT22;3661;53.288;10.458;2023-04-01T07:59:58;8.50;99.90
7240;DHT22;3661;53.288;10.458;2023-04-01T08:02:45;8.50;99.90
7240;DHT22;3661;53.288;10.458;2023-04-01T08:05:24;8.50;99.90
7240;DHT22;3661;53.288;10.458;2023-04-01T08:08:06;8.40;99.90
7240;DHT22;3661;53.288;10.458;2023-04-01T08:10:47;8.40;99.90
7240;DHT22;3661;53.288;10.458;2023-04-01T08:13:30;8.40;99.90
7240;DHT22;3661;53.288;10.458;2023-04-01T08:16:12;8.30;99.90
7240;DHT22;3661;53.288;10.458;2023-04-01T08:18:54;8.30;99.90
7240;DHT22;3661;53.288;10.458;2023-04-01T08:21:35;8.20;99.90
7240;DHT22;3661;53.288;10.458;2023-04-01T08:24:20;8.20;99.90
7240;DHT22;3661;53.288;10.458;2023-04-01T08:26:57;8.20;99.90
7240;DHT22;3661;53.288;10.458;2023-04-01T08:29:36;8.20;99.90
7240;DHT22;3661;53.288;10.458;2023-04-01T08:32:15;8.20;99.90
7240;DHT22;3661;53.288;10.458;2023-04-01T08:34:57;8.20;99.90
7240;DHT22;3661;53.288;10.458;2023-04-01T08:37:36;8.10;99.90
7240;DHT22;3661;53.288;10.458;2023-04-01T08:43:22;8.10;99.90
7240;DHT22;3661;53.288;10.458;2023-04-01T08:46:04;8.10;99.90
7240;DHT22;3661;53.288;10.458;2023-04-01T08:48:57;8.10;99.90
7240;DHT22;3661;53.288;10.458;2023-04-01T08:51:54;8.10;99.90
7240;DHT22;3661;53.288;10.458;2023-04-01T08:55:25;8.10;99.90
7240;DHT22;3661;53.288;10.458;2023-04-01T08:58:32;8.10;99.90
7240;DHT22;3661;53.288;10.458;2023-04-01T09:01:40;8.10;99.90
7240;DHT22;3661;53.288;10.458;2023-04-01T09:04:25;8.10;99.90
7240;DHT22;3661;53.288;10.458;2023-04-01T09:07:04;8.10;99.90
7240;DHT22;3661;53.288;10.458;2023-04-01T09:16:27;8.10;99.90
7240;DHT22;3661;53.288;10.458;2023-04-01T09:19:28;8.00;99.90
7240;DHT22;3661;53.288;10.458;2023-04-01T09:25:35;7.90;99.90
7240;DHT22;3661;53.288;10.458;2023-04-01T09:28:17;7.90;99.90
7240;DHT22;3661;53.288;10.458;2023-04-01T09:31:09;7.90;99.90
7240;DHT22;3661;53.288;10.458;2023-04-01T09:34:09;7.80;99.90
7240;DHT22;3661;53.288;10.458;2023-04-01T09:36:46;7.80;99.90
7240;DHT22;3661;53.288;10.458;2023-04-01T09:39:34;7.80;99.90
7240;DHT22;3661;53.288;10.458;2023-04-01T09:42:22;7.80;99.90
7240;DHT22;3661;53.288;10.458;2023-04-01T09:45:05;7.80;99.90
7240;DHT22;3661;53.288;10.458;2023-04-01T09:47:50;7.80;99.90
7240;DHT22;3661;53.288;10.458;2023-04-01T09:50:35;7.80;99.90
7240;DHT22;3661;53.288;10.458;2023-04-01T09:53:23;7.70;99.90
7240;DHT22;3661;53.288;10.458;2023-04-01T10:06:06;7.60;99.90
7240;DHT22;3661;53.288;10.458;2023-04-01T10:15:20;7.70;99.90
7240;DHT22;3661;53.288;10.458;2023-04-01T10:24:04;7.70;99.90
7240;DHT22;3661;53.288;10.458;2023-04-01T10:27:03;7.60;99.90
7240;DHT22;3661;53.288;10.458;2023-04-01T10:36:31;7.60;99.90
7240;DHT22;3661;53.288;10.458;2023-04-01T10:39:38;7.70;99.90
7240;DHT22;3661;53.288;10.458;2023-04-01T10:45:58;7.70;99.90
7240;DHT22;3661;53.288;10.458;2023-04-01T10:49:00;7.60;99.90
7240;DHT22;3661;53.288;10.458;2023-04-01T10:52:10;7.70;99.90
7240;DHT22;3661;53.288;10.458;2023-04-01T10:55:02;7.70;99.90
7240;DHT22;3661;53.288;10.458;2023-04-01T10:58:00;7.70;99.90
7240;DHT22;3661;53.288;10.458;2023-04-01T11:01:14;7.70;99.90
7240;DHT22;3661;53.288;10.458;2023-04-01T11:07:23;7.70;99.90
7240;DHT22;3661;53.288;10.458;2023-04-01T11:13:43;7.70;99.90
7240;DHT22;3661;53.288;10.458;2023-04-01T11:23:28;7.70;99.90
7240;DHT22;3661;53.288;10.458;2023-04-01T11:26:08;7.70;99.90
7240;DHT22;3661;53.288;10.458;2023-04-01T11:31:50;7.70;99.90
7240;DHT22;3661;53.288;10.458;2023-04-01T11:34:40;7.70;99.90
7240;DHT22;3661;53.288;10.458;2023-04-01T11:37:24;7.70;99.90
7240;DHT22;3661;53.288;10.458;2023-04-01T11:40:07;7.70;99.90
7240;DHT22;3661;53.288;10.458;2023-04-01T11:42:52;7.70;99.90
7240;DHT22;3661;53.288;10.458;2023-04-01T11:45:35;7.70;99.90
7240;DHT22;3661;53.288;10.458;2023-04-01T11:48:15;7.70;99.90
7240;DHT22;3661;53.288;10.458;2023-04-01T11:51:04;7.70;99.90
7240;DHT22;3661;53.288;10.458;2023-04-01T11:53:52;7.70;99.90
7240;DHT22;3661;53.288;10.458;2023-04-01T11:56:39;7.70;99.90
7240;DHT22;3661;53.288;10.458;2023-04-01T12:02:44;7.70;99.90
7240;DHT22;3661;53.288;10.458;2023-04-01T12:05:38;7.70;99.90
7240;DHT22;3661;53.288;10.458;2023-04-01T12:08:21;7.70;99.90
7240;DHT22;3661;53.288;10.458;2023-04-01T12:11:07;7.80;99.90
7240;DHT22;3661;53.288;10.458;2023-04-01T12:13:53;7.80;99.90
7240;DHT22;3661;53.288;10.458;2023-04-01T12:16:49;7.70;99.90
7240;DHT22;3661;53.288;10.458;2023-04-01T12:19:32;7.70;99.90
7240;DHT22;3661;53.288;10.458;2023-04-01T12:22:25;7.70;99.90
7240;DHT22;3661;53.288;10.458;2023-04-01T12:25:22;7.70;99.90
7240;DHT22;3661;53.288;10.458;2023-04-01T12:28:06;7.70;99.90
7240;DHT22;3661;53.288;10.458;2023-04-01T12:30:51;7.70;99.90
7240;DHT22;3661;53.288;10.458;2023-04-01T12:33:52;7.70;99.90
7240;DHT22;3661;53.288;10.458;2023-04-01T12:36:44;7.70;99.90
7240;DHT22;3661;53.288;10.458;2023-04-01T12:42:31;7.70;99.90
7240;DHT22;3661;53.288;10.458;2023-04-01T12:45:27;7.70;99.90
7240;DHT22;3661;53.288;10.458;2023-04-01T12:57:21;7.60;99.90
7240;DHT22;3661;53.288;10.458;2023-04-01T13:00:18;7.60;99.90
7240;DHT22;3661;53.288;10.458;2023-04-01T13:03:09;7.60;99.90
7240;DHT22;3661;53.288;10.458;2023-04-01T13:09:00;7.60;99.90
7240;DHT22;3661;53.288;10.458;2023-04-01T13:11:40;7.60;99.90
7240;DHT22;3661;53.288;10.458;2023-04-01T13:14:36;7.60;99.90
7240;DHT22;3661;53.288;10.458;2023-04-01T13:17:16;7.50;99.90
7240;DHT22;3661;53.288;10.458;2023-04-01T13:20:00;7.50;99.90
7240;DHT22;3661;53.288;10.458;2023-04-01T13:22:45;7.50;99.90
7240;DHT22;3661;53.288;10.458;2023-04-01T13:25:26;7.40;99.90
7240;DHT22;3661;53.288;10.458;2023-04-01T13:28:03;7.40;99.90
7240;DHT22;3661;53.288;10.458;2023-04-01T13:30:43;7.40;99.90
7240;DHT22;3661;53.288;10.458;2023-04-01T13:33:24;7.40;99.90
7240;DHT22;3661;53.288;10.458;2023-04-01T13:36:11;7.30;99.90
7240;DHT22;3661;53.288;10.458;2023-04-01T13:39:15;7.30;99.90
7240;DHT22;3661;53.288;10.458;2023-04-01T13:42:19;7.30;99.90
7240;DHT22;3661;53.288;10.458;2023-04-01T13:44:59;7.20;99.90
7240;DHT22;3661;53.288;10.458;2023-04-01T13:51:06;7.20;99.90
7240;DHT22;3661;53.288;10.458;2023-04-01T13:56:44;7.20;99.90
7240;DHT22;3661;53.288;10.458;2023-04-01T13:59:48;7.20;99.90
7240;DHT22;3661;53.288;10.458;2023-04-01T14:02:59;7.20;99.90
7240;DHT22;3661;53.288;10.458;2023-04-01T14:05:56;7.20;99.90
7240;DHT22;3661;53.288;10.458;2023-04-01T14:08:50;7.10;99.90
7240;DHT22;3661;53.288;10.458;2023-04-01T14:11:30;7.10;99.90
7240;DHT22;3661;53.288;10.458;2023-04-01T14:14:17;7.10;99.90
7240;DHT22;3661;53.288;10.458;2023-04-01T14:17:10;7.10;99.90
7240;DHT22;3661;53.288;10.458;2023-04-01T14:20:02;7.10;99.90
7240;DHT22;3661;53.288;10.458;2023-04-01T14:22:45;7.00;99.90
7240;DHT22;3661;53.288;10.458;2023-04-01T14:25:38;7.00;99.90
7240;DHT22;3661;53.288;10.458;2023-04-01T14:28:18;7.00;99.90
7240;DHT22;3661;53.288;10.458;2023-04-01T14:31:26;7.00;99.90
7240;DHT22;3661;53.288;10.458;2023-04-01T14:34:11;7.00;99.90
7240;DHT22;3661;53.288;10.458;2023-04-01T14:37:11;7.00;99.90
7240;DHT22;3661;53.288;10.458;2023-04-01T14:40:12;7.00;99.90
7240;DHT22;3661;53.288;10.458;2023-04-01T14:42:59;7.00;99.90
7240;DHT22;3661;53.288;10.458;2023-04-01T14:46:02;7.00;99.90
7240;DHT22;3661;53.288;10.458;2023-04-01T14:48:50;6.90;99.90
7240;DHT22;3661;53.288;10.458;2023-04-01T14:51:29;6.90;99.90
7240;DHT22;3661;53.288;10.458;2023-04-01T14:54:06;6.90;99.90
7240;DHT22;3661;53.288;10.458;2023-04-01T14:56:51;6.90;99.90
7240;DHT22;3661;53.288;10.458;2023-04-01T14:59:39;6.90;99.90
7240;DHT22;3661;53.288;10.458;2023-04-01T15:02:27;6.80;99.90
7240;DHT22;3661;53.288;10.458;2023-04-01T15:05:13;6.80;99.90
7240;DHT22;3661;53.288;10.458;2023-04-01T15:08:00;6.80;99.90
7240;DHT22;3661;53.288;10.458;2023-04-01T15:11:06;6.80;99.90
7240;DHT22;3661;53.288;10.458;2023-04-01T15:13:55;6.80;99.90
7240;DHT22;3661;53.288;10.458;2023-04-01T15:16:41;6.70;99.90
7240;DHT22;3661;53.288;10.458;2023-04-01T15:19:28;6.70;99.90
7240;DHT22;3661;53.288;10.458;2023-04-01T15:22:19;6.70;99.90
7240;DHT22;3661;53.288;10.458;2023-04-01T15:25:13;6.70;99.90
7240;DHT22;3661;53.288;10.458;2023-04-01T15:27:53;6.70;99.90
7240;DHT22;3661;53.288;10.458;2023-04-01T15:30:33;6.60;99.90
7240;DHT22;3661;53.288;10.458;2023-04-01T15:33:28;6.60;99.90
7240;DHT22;3661;53.288;10.458;2023-04-01T15:36:14;6.60;99.90
7240;DHT22;3661;53.288;10.458;2023-04-01T15:38:50;6.60;99.90
7240;DHT22;3661;53.288;10.458;2023-04-01T15:41:33;6.60;99.90
7240;DHT22;3661;53.288;10.458;2023-04-01T15:44:26;6.50;99.90
7240;DHT22;3661;53.288;10.458;2023-04-01T15:47:28;6.50;99.90
7240;DHT22;3661;53.288;10.458;2023-04-01T15:50:26;6.50;99.90
7240;DHT22;3661;53.288;10.458;2023-04-01T15:53:12;6.50;99.90
7240;DHT22;3661;53.288;10.458;2023-04-01T15:55:50;6.40;99.90
7240;DHT22;3661;53.288;10.458;2023-04-01T15:58:48;6.40;99.90
7240;DHT22;3661;53.288;10.458;2023-04-01T16:01:34;6.40;99.90
7240;DHT22;3661;53.288;10.458;2023-04-01T16:04:24;6.30;99.90
7240;DHT22;3661;53.288;10.458;2023-04-01T16:07:10;6.30;99.90
7240;DHT22;3661;53.288;10.458;2023-04-01T16:10:05;6.20;99.90
7240;DHT22;3661;53.288;10.458;2023-04-01T16:12:50;6.20;99.90
7240;DHT22;3661;53.288;10.458;2023-04-01T16:15:27;6.20;99.90
7240;DHT22;3661;53.288;10.458;2023-04-01T16:20:57;6.20;99.90
7240;DHT22;3661;53.288;10.458;2023-04-01T16:23:37;6.10;99.90
7240;DHT22;3661;53.288;10.458;2023-04-01T16:26:22;6.10;99.90
7240;DHT22;3661;53.288;10.458;2023-04-01T16:29:05;6.00;99.90
7240;DHT22;3661;53.288;10.458;2023-04-01T16:31:48;6.00;99.90
7240;DHT22;3661;53.288;10.458;2023-04-01T16:34:29;6.00;99.90
7240;DHT22;3661;53.288;10.458;2023-04-01T16:37:13;5.90;99.90
7240;DHT22;3661;53.288;10.458;2023-04-01T16:40:01;5.90;99.90
7240;DHT22;3661;53.288;10.458;2023-04-01T16:42:40;5.90;99.90
7240;DHT22;3661;53.288;10.458;2023-04-01T16:45:25;5.80;99.90
7240;DHT22;3661;53.288;10.458;2023-04-01T16:48:11;5.80;99.90
7240;DHT22;3661;53.288;10.458;2023-04-01T16:50:49;5.80;99.90
7240;DHT22;3661;53.288;10.458;2023-04-01T16:53:35;5.80;99.90
7240;DHT22;3661;53.288;10.458;2023-04-01T16:56:12;5.70;99.90
7240;DHT22;3661;53.288;10.458;2023-04-01T16:58:57;5.70;99.90
7240;DHT22;3661;53.288;10.458;2023-04-01T17:01:43;5.70;99.90
7240;DHT22;3661;53.288;10.458;2023-04-01T17:04:23;5.70;99.90
7240;DHT22;3661;53.288;10.458;2023-04-01T17:07:05;5.60;99.90
7240;DHT22;3661;53.288;10.458;2023-04-01T17:09:56;5.60;99.90
7240;DHT22;3661;53.288;10.458;2023-04-01T17:12:36;5.60;99.90
7240;DHT22;3661;53.288;10.458;2023-04-01T17:15:20;5.60;99.90
7240;DHT22;3661;53.288;10.458;2023-04-01T17:17:57;5.50;99.90
7240;DHT22;3661;53.288;10.458;2023-04-01T17:20:42;5.40;99.90
7240;DHT22;3661;53.288;10.458;2023-04-01T17:23:21;5.40;99.90
7240;DHT22;3661;53.288;10.458;2023-04-01T17:26:06;5.40;99.90
7240;DHT22;3661;53.288;10.458;2023-04-01T17:28:56;5.40;99.90
7240;DHT22;3661;53.288;10.458;2023-04-01T17:31:45;5.30;99.90
7240;DHT22;3661;53.288;10.458;2023-04-01T17:34:39;5.30;99.90
7240;DHT22;3661;53.288;10.458;2023-04-01T17:37:24;5.30;99.90
7240;DHT22;3661;53.288;10.458;2023-04-01T17:40:16;5.30;99.90
7240;DHT22;3661;53.288;10.458;2023-04-01T17:43:03;5.30;99.90
7240;DHT22;3661;53.288;10.458;2023-04-01T17:45:45;5.30;99.90
7240;DHT22;3661;53.288;10.458;2023-04-01T17:48:30;5.30;99.90
7240;DHT22;3661;53.288;10.458;2023-04-01T17:51:16;5.30;99.90
7240;DHT22;3661;53.288;10.458;2023-04-01T17:53:59;5.20;99.90
7240;DHT22;3661;53.288;10.458;2023-04-01T17:56:44;5.10;99.90
7240;DHT22;3661;53.288;10.458;2023-04-01T17:59:26;5.10;99.90
7240;DHT22;3661;53.288;10.458;2023-04-01T18:02:15;5.10;99.90
7240;DHT22;3661;53.288;10.458;2023-04-01T18:08:17;5.10;99.90
7240;DHT22;3661;53.288;10.458;2023-04-01T18:11:00;5.00;99.90
7240;DHT22;3661;53.288;10.458;2023-04-01T18:13:57;5.00;99.90
7240;DHT22;3661;53.288;10.458;2023-04-01T18:16:45;5.00;99.90
7240;DHT22;3661;53.288;10.458;2023-04-01T18:19:32;5.00;99.90
7240;DHT22;3661;53.288;10.458;2023-04-01T18:25:30;4.90;99.90
7240;DHT22;3661;53.288;10.458;2023-04-01T18:28:24;4.90;99.90
7240;DHT22;3661;53.288;10.458;2023-04-01T18:31:06;4.90;99.90
7240;DHT22;3661;53.288;10.458;2023-04-01T18:33:46;4.90;99.90
7240;DHT22;3661;53.288;10.458;2023-04-01T18:36:32;4.90;99.90
7240;DHT22;3661;53.288;10.458;2023-04-01T18:39:10;4.80;99.90
7240;DHT22;3661;53.288;10.458;2023-04-01T18:41:52;4.80;99.90
7240;DHT22;3661;53.288;10.458;2023-04-01T18:44:36;4.80;99.90
7240;DHT22;3661;53.288;10.458;2023-04-01T18:47:24;4.80;99.90
7240;DHT22;3661;53.288;10.458;2023-04-01T18:50:02;4.70;99.90
7240;DHT22;3661;53.288;10.458;2023-04-01T18:52:42;4.70;99.90
7240;DHT22;3661;53.288;10.458;2023-04-01T18:55:33;4.70;99.90
7240;DHT22;3661;53.288;10.458;2023-04-01T18:58:17;4.70;99.90
7240;DHT22;3661;53.288;10.458;2023-04-01T19:01:02;4.70;99.90
7240;DHT22;3661;53.288;10.458;2023-04-01T19:03:43;4.70;99.90
7240;DHT22;3661;53.288;10.458;2023-04-01T19:06:21;4.70;99.90
7240;DHT22;3661;53.288;10.458;2023-04-01T19:09:09;4.70;99.90
7240;DHT22;3661;53.288;10.458;2023-04-01T19:14:54;4.60;99.90
7240;DHT22;3661;53.288;10.458;2023-04-01T19:17:43;4.60;99.90
7240;DHT22;3661;53.288;10.458;2023-04-01T19:20:20;4.60;99.90
7240;DHT22;3661;53.288;10.458;2023-04-01T19:23:16;4.50;99.90